Time;durP1;ratioP1;P1;durP2;ratioP2;P2;SDS_P1;SDS_P2;PMS_P1;PMS_P2;Temp;Humidity;BMP_temperature;BMP_pressure;BME280_temperature;BME280_humidity;BME280_pressure;Samples;Min_cycle;Max_cycle;Signal;HPM_P1;HPM_P2
2022/10/09 00:01:11;;;;;;;12.33;8.40;;;6.70;99.90;;;6.43;90.51;98841.44;5014969;28;20805;-88
2022/10/09 00:03:43;;;;;;;14.73;8.80;;;6.70;99.90;;;6.64;90.92;98879.34;5039452;28;20816;-85
2022/10/09 00:06:15;;;;;;;10.70;7.67;;;6.70;99.90;;;6.49;90.60;98854.19;5005379;28;20456;-84
2022/10/09 00:08:45;;;;;;;9.80;8.17;;;6.70;99.90;;;6.59;90.54;98862.91;5035715;28;20459;-84
2022/10/09 00:11:15;;;;;;;16.80;9.57;;;6.60;99.90;;;6.10;90.55;98799.31;5031197;28;20488;-85
2022/10/09 00:13:44;;;;;;;10.60;9.03;;;6.60;99.90;;;6.26;90.04;98824.47;5018870;28;20465;-85
2022/10/09 00:16:13;;;;;;;10.57;9.47;;;6.60;99.90;;;6.48;90.59;98869.47;5040756;28;20462;-85
2022/10/09 00:18:43;;;;;;;14.23;8.70;;;6.50;99.90;;;6.42;90.27;98870.13;5020078;28;20461;-84
2022/10/09 00:21:20;;;;;;;9.77;7.83;;;6.40;99.90;;;6.32;90.34;98854.19;5014892;28;20452;-81
2022/10/09 00:23:48;;;;;;;10.83;8.57;;;6.40;99.90;;;6.37;90.43;98877.84;5016071;28;20456;-81
2022/10/09 00:26:17;;;;;;;11.20;8.37;;;6.30;99.90;;;6.29;90.24;98870.63;4997153;28;20463;-82
2022/10/09 00:28:45;;;;;;;8.60;7.70;;;6.20;99.90;;;6.38;89.88;98874.16;5010848;28;20464;-82
2022/10/09 00:31:13;;;;;;;9.70;8.70;;;6.30;99.90;;;6.41;90.17;98879.19;5038487;28;20480;-82
2022/10/09 00:33:42;;;;;;;12.57;9.70;;;6.40;99.90;;;6.37;90.32;98875.16;5011642;28;20479;-83
2022/10/09 00:36:12;;;;;;;14.20;9.53;;;6.40;99.90;;;6.00;90.57;98810.19;5023022;28;20453;-83
2022/10/09 00:38:39;;;;;;;14.83;9.60;;;6.40;99.90;;;6.03;91.62;98828.66;5017737;28;20465;-83
2022/10/09 00:41:07;;;;;;;13.10;9.83;;;6.40;99.90;;;6.27;90.76;98877.16;5022027;28;20462;-82
2022/10/09 00:43:45;;;;;;;14.30;10.37;;;6.30;99.90;;;6.18;91.57;98869.13;5009716;28;20490;-81
2022/10/09 00:46:36;;;;;;;9.70;8.47;;;6.30;99.90;;;6.18;91.52;98873.63;5013592;28;20452;-83
2022/10/09 00:49:15;;;;;;;15.23;9.77;;;6.20;99.90;;;6.14;91.40;98875.81;5044753;28;20444;-82
2022/10/09 00:51:46;;;;;;;13.23;9.23;;;6.20;99.90;;;5.95;91.22;98853.59;4999469;28;21176;-82
2022/10/09 00:54:16;;;;;;;10.10;8.97;;;6.20;99.90;;;6.05;91.46;98863.38;5032023;28;20453;-81
2022/10/09 00:56:44;;;;;;;13.80;8.50;;;6.20;99.90;;;5.94;91.27;98870.72;5032813;28;20446;-82
2022/10/09 00:59:12;;;;;;;10.97;9.03;;;6.10;99.90;;;5.90;91.49;98872.06;5034499;28;20985;-81
2022/10/09 01:01:41;;;;;;;13.20;8.57;;;6.10;99.90;;;5.91;91.26;98854.94;5047720;28;20446;-81
2022/10/09 01:04:09;;;;;;;14.80;8.10;;;6.00;99.90;;;5.67;90.57;98816.34;5026328;28;20450;-81
2022/10/09 01:06:55;;;;;;;19.93;10.20;;;6.00;99.90;;;5.07;91.39;98737.78;5044649;28;20456;-81
2022/10/09 01:09:31;;;;;;;12.30;9.23;;;6.00;99.90;;;5.79;91.50;98864.31;5051951;28;20457;-83
2022/10/09 01:12:08;;;;;;;13.90;9.40;;;6.00;99.90;;;5.52;91.24;98799.22;5036575;28;20473;-82
2022/10/09 01:14:43;;;;;;;13.90;9.20;;;5.90;99.90;;;5.39;91.32;98800.53;5023455;28;20466;-84
2022/10/09 01:17:21;;;;;;;10.00;8.60;;;5.90;99.90;;;5.77;91.38;98855.59;5009579;28;20464;-82
2022/10/09 01:20:32;;;;;;;11.97;7.87;;;5.80;99.90;;;5.79;91.50;98858.94;5035956;28;20519;-83
2022/10/09 01:24:02;;;;;;;17.13;8.77;;;5.80;99.90;;;5.77;90.93;98850.22;5026133;28;20445;-83
2022/10/09 01:27:04;;;;;;;14.40;9.37;;;5.80;99.90;;;5.74;91.47;98842.50;5015095;28;20455;-82
2022/10/09 01:29:36;;;;;;;12.57;9.03;;;5.80;99.90;;;5.67;91.39;98836.97;5012057;28;20490;-86
2022/10/09 01:32:06;;;;;;;9.33;8.43;;;5.80;99.90;;;5.78;91.38;98851.91;5022411;28;21063;-86
2022/10/09 01:34:33;;;;;;;12.30;9.17;;;5.80;99.90;;;5.48;90.52;98797.88;4993385;28;20500;-85
2022/10/09 01:37:01;;;;;;;13.10;8.53;;;5.80;99.90;;;5.74;90.56;98850.56;5006037;28;20528;-85
2022/10/09 01:39:31;;;;;;;10.33;8.37;;;5.70;99.90;;;5.28;91.31;98791.94;5031770;28;20460;-86
2022/10/09 01:42:02;;;;;;;9.80;8.80;;;5.70;99.90;;;5.72;90.73;98848.03;5012862;28;20459;-85
2022/10/09 01:44:32;;;;;;;13.17;9.13;;;5.70;99.90;;;5.31;91.06;98776.38;5027500;28;20465;-82
2022/10/09 01:47:01;;;;;;;10.40;8.40;;;5.70;99.90;;;5.59;91.32;98819.00;5030867;28;20829;-82
2022/10/09 01:49:48;;;;;;;11.97;8.80;;;5.70;99.90;;;5.65;90.73;98844.34;5007657;28;20510;-83
2022/10/09 01:52:29;;;;;;;10.83;7.60;;;5.70;99.90;;;5.50;91.92;98820.84;5021781;28;20487;-82
2022/10/09 01:55:23;;;;;;;10.40;8.37;;;5.70;99.90;;;5.07;91.69;98748.50;5028126;28;20459;-84
2022/10/09 01:58:01;;;;;;;13.33;9.23;;;5.70;99.90;;;5.43;91.83;98816.28;5042964;28;20461;-82
2022/10/09 02:00:35;;;;;;;12.40;9.40;;;5.70;99.90;;;5.27;92.29;98807.19;5024517;28;20451;-83
2022/10/09 02:03:05;;;;;;;14.40;9.37;;;5.60;99.90;;;5.41;92.58;98827.16;5039976;28;20453;-82
2022/10/09 02:05:33;;;;;;;18.03;9.80;;;5.60;99.90;;;4.64;92.21;98710.19;5030485;28;20460;-84
2022/10/09 02:08:00;;;;;;;12.93;8.67;;;5.60;99.90;;;5.24;92.09;98808.34;5006763;28;20458;-85
2022/10/09 02:10:27;;;;;;;12.87;9.83;;;5.60;99.90;;;5.42;92.43;98819.97;5024653;28;20465;-85
2022/10/09 02:13:00;;;;;;;12.60;9.80;;;5.50;99.90;;;5.41;91.22;98819.13;5028626;28;20486;-85
2022/10/09 02:15:32;;;;;;;11.87;8.90;;;5.50;99.90;;;5.37;90.98;98829.31;5031888;28;20810;-85
2022/10/09 02:18:06;;;;;;;12.07;9.30;;;5.40;99.90;;;5.29;91.30;98813.22;5029065;28;20550;-85
2022/10/09 02:20:37;;;;;;;13.90;10.07;;;5.40;99.90;;;4.61;92.67;98718.50;5027773;28;20472;-85
2022/10/09 02:23:07;;;;;;;11.93;8.80;;;5.30;99.90;;;5.21;92.77;98815.84;4985299;28;20455;-84
2022/10/09 02:25:36;;;;;;;11.60;9.10;;;5.30;99.90;;;4.92;92.12;98766.19;5022257;28;20727;-85
2022/10/09 02:28:06;;;;;;;12.83;9.50;;;5.20;99.90;;;5.29;92.02;98812.38;5023329;28;20453;-80
2022/10/09 02:30:44;;;;;;;14.17;10.30;;;5.20;99.90;;;5.28;91.83;98805.34;5015255;28;20831;-82
2022/10/09 02:33:11;;;;;;;12.90;9.07;;;5.20;99.90;;;5.04;91.28;98780.97;5028552;28;20469;-81
2022/10/09 02:35:39;;;;;;;10.30;8.17;;;5.20;99.90;;;5.20;92.22;98814.19;5013856;28;20454;-81
2022/10/09 02:38:06;;;;;;;11.63;9.47;;;5.30;99.90;;;5.23;91.39;98811.16;5022220;28;20517;-81
2022/10/09 02:40:34;;;;;;;13.97;10.03;;;5.30;99.90;;;5.21;91.25;98807.81;5009143;28;20471;-82
2022/10/09 02:43:01;;;;;;;11.03;9.57;;;5.20;99.90;;;5.02;91.47;98777.63;5034468;28;20467;-82
2022/10/09 02:45:30;;;;;;;12.43;9.47;;;5.30;99.90;;;5.17;92.15;98801.13;5012539;28;20868;-82
2022/10/09 02:47:57;;;;;;;15.90;9.70;;;5.30;99.90;;;5.16;91.96;98805.66;5008698;28;20447;-82
2022/10/09 02:50:25;;;;;;;12.17;9.40;;;5.30;99.90;;;4.88;90.79;98764.84;5010451;28;20451;-81
2022/10/09 02:52:52;;;;;;;10.53;8.33;;;5.20;99.90;;;5.13;91.51;98807.81;5010750;28;20522;-81
2022/10/09 02:55:19;;;;;;;14.03;9.13;;;5.10;99.90;;;5.07;91.47;98806.59;5002605;28;20456;-82
2022/10/09 02:57:47;;;;;;;11.43;9.33;;;5.10;99.90;;;4.82;91.77;98761.81;5020402;28;20466;-82
2022/10/09 03:00:15;;;;;;;13.90;8.80;;;5.10;99.90;;;5.04;91.58;98797.03;5028628;28;20454;-83
2022/10/09 03:02:44;;;;;;;9.63;8.30;;;5.20;99.90;;;5.02;92.03;98799.03;5027081;28;20453;-84
2022/10/09 03:05:11;;;;;;;11.50;9.43;;;5.10;99.90;;;4.47;91.69;98736.84;5007653;28;20447;-84
2022/10/09 03:07:39;;;;;;;10.97;8.37;;;5.10;99.90;;;4.95;91.83;98811.41;5016495;28;20462;-84
2022/10/09 03:10:07;;;;;;;12.93;9.03;;;5.00;99.90;;;4.29;92.26;98701.28;5014426;28;20826;-84
2022/10/09 03:12:35;;;;;;;10.90;9.37;;;5.00;99.90;;;4.96;91.50;98813.09;5009108;28;20471;-83
2022/10/09 03:15:03;;;;;;;11.50;8.40;;;5.00;99.90;;;4.74;92.22;98804.59;5023203;28;20450;-85
2022/10/09 03:17:30;;;;;;;11.33;8.50;;;5.00;99.90;;;4.78;92.15;98786.38;5029663;28;20462;-86
2022/10/09 03:19:59;;;;;;;9.90;8.37;;;5.00;99.90;;;5.02;92.00;98814.28;5042424;28;20457;-85
2022/10/09 03:22:27;;;;;;;9.80;8.67;;;5.10;99.90;;;5.00;91.47;98810.91;5032088;28;20465;-81
2022/10/09 03:24:54;;;;;;;12.20;8.30;;;5.10;99.90;;;4.42;91.72;98739.16;5029324;28;20898;-82
2022/10/09 03:27:22;;;;;;;13.47;8.20;;;5.10;99.90;;;4.90;92.41;98813.72;5003847;28;20458;-82
2022/10/09 03:29:49;;;;;;;9.37;8.17;;;5.10;99.90;;;4.87;92.14;98806.84;5030391;28;20800;-82
2022/10/09 03:32:17;;;;;;;11.57;9.10;;;5.00;99.90;;;4.01;91.68;98682.72;5018064;28;21252;-84
2022/10/09 03:34:44;;;;;;;8.20;7.40;;;4.90;99.90;;;4.62;91.76;98774.56;5029457;28;20871;-83
2022/10/09 03:37:12;;;;;;;10.90;7.23;;;4.80;99.90;;;4.38;92.46;98751.19;5031581;28;20450;-83
2022/10/09 03:39:40;;;;;;;11.33;8.83;;;4.80;99.90;;;4.82;91.94;98810.00;5044143;28;20492;-84
2022/10/09 03:42:07;;;;;;;10.07;7.40;;;4.80;99.90;;;4.82;92.31;98815.34;5032055;28;21074;-83
2022/10/09 03:44:35;;;;;;;8.43;7.57;;;4.80;99.90;;;4.77;91.73;98801.59;5042759;28;20472;-83
2022/10/09 03:47:03;;;;;;;12.67;9.63;;;4.80;99.90;;;4.86;92.20;98817.72;5028734;28;20468;-83
2022/10/09 03:49:32;;;;;;;11.93;7.03;;;4.90;99.90;;;4.81;91.70;98813.69;5019434;28;20940;-83
2022/10/09 03:51:59;;;;;;;11.23;8.40;;;4.80;99.90;;;4.20;93.30;98741.38;5024516;28;20439;-84
2022/10/09 03:54:28;;;;;;;14.07;8.00;;;4.70;99.90;;;4.76;93.09;98818.66;5007964;28;20551;-83
2022/10/09 03:56:56;;;;;;;12.67;8.43;;;4.70;99.90;;;4.85;92.02;98824.06;5032161;28;20515;-84
2022/10/09 03:59:23;;;;;;;9.83;8.00;;;4.80;99.90;;;3.99;91.65;98698.09;5004480;28;20446;-84
2022/10/09 04:01:50;;;;;;;12.80;8.17;;;4.80;99.90;;;4.66;92.91;98824.13;5007868;28;20458;-82
2022/10/09 04:04:18;;;;;;;11.13;8.20;;;4.70;99.90;;;4.60;92.85;98811.38;5008043;28;20450;-83
2022/10/09 04:06:45;;;;;;;9.10;8.10;;;4.60;99.90;;;3.92;92.56;98717.44;5018280;28;20458;-83
2022/10/09 04:09:12;;;;;;;10.50;8.80;;;4.50;99.90;;;4.29;93.04;98749.44;5009583;28;20778;-84
2022/10/09 04:11:41;;;;;;;9.07;8.10;;;4.60;99.90;;;4.30;93.32;98765.34;5003853;28;20820;-84
2022/10/09 04:14:09;;;;;;;11.13;8.20;;;4.70;99.90;;;4.25;94.08;98765.81;5009980;28;20479;-84
2022/10/09 04:16:36;;;;;;;12.33;8.37;;;4.60;99.90;;;4.11;94.09;98764.56;5037072;28;20859;-84
2022/10/09 04:19:04;;;;;;;10.13;7.60;;;4.50;99.90;;;4.42;93.70;98827.47;5044833;28;20442;-84
2022/10/09 04:21:32;;;;;;;14.37;8.10;;;4.50;99.90;;;4.32;93.04;98771.38;5034421;28;20830;-83
2022/10/09 04:24:02;;;;;;;10.10;8.27;;;4.60;99.90;;;4.64;92.25;98817.25;5000284;28;20467;-83
2022/10/09 04:26:29;;;;;;;13.90;8.40;;;4.60;99.90;;;4.54;92.98;98820.00;5037110;28;20536;-83
2022/10/09 04:28:58;;;;;;;14.20;8.33;;;4.50;99.90;;;4.17;92.64;98763.09;5036089;28;20450;-83
2022/10/09 04:31:26;;;;;;;9.10;7.90;;;4.60;99.90;;;4.48;93.17;98818.84;5031582;28;20532;-83
2022/10/09 04:33:55;;;;;;;13.30;8.10;;;4.50;99.90;;;4.31;92.45;98800.94;5034864;28;20480;-84
2022/10/09 04:36:23;;;;;;;8.30;7.47;;;4.50;99.90;;;4.38;92.13;98791.31;5062038;28;20465;-83
2022/10/09 04:38:51;;;;;;;12.40;7.43;;;4.50;99.90;;;4.45;91.87;98813.78;5045677;28;20482;-84
2022/10/09 04:41:18;;;;;;;11.20;8.07;;;4.50;99.90;;;4.10;91.43;98759.34;5040935;28;20466;-85
2022/10/09 04:43:46;;;;;;;10.90;8.63;;;4.50;99.90;;;4.30;91.57;98826.88;5008155;28;20811;-83
2022/10/09 04:46:16;;;;;;;11.17;7.93;;;4.40;99.90;;;4.12;92.09;98797.47;5013269;28;20996;-82
2022/10/09 04:48:45;;;;;;;11.13;8.17;;;4.40;99.90;;;4.20;92.28;98824.31;5040393;28;20495;-83
2022/10/09 04:51:14;;;;;;;11.47;8.20;;;4.20;99.90;;;4.23;91.89;98821.31;5014331;28;20451;-84
2022/10/09 04:53:42;;;;;;;9.27;7.33;;;4.20;99.90;;;3.71;91.87;98740.97;5031251;28;20480;-81
2022/10/09 04:56:15;;;;;;;12.03;8.67;;;4.20;99.90;;;4.11;91.85;98834.09;5015219;28;20712;-82
2022/10/09 04:58:42;;;;;;;8.73;7.37;;;4.20;99.90;;;4.19;91.28;98816.41;5023746;28;20459;-84
2022/10/09 05:01:16;;;;;;;8.20;7.03;;;4.20;99.90;;;4.08;90.73;98820.19;5019991;28;20446;-84
2022/10/09 05:03:44;;;;;;;10.73;8.10;;;4.10;99.90;;;4.07;91.68;98823.84;5025537;28;20531;-84
2022/10/09 05:06:21;;;;;;;13.30;7.57;;;4.10;99.90;;;3.71;91.13;98763.22;5033392;28;20450;-82
2022/10/09 05:08:48;;;;;;;12.40;7.50;;;4.10;99.90;;;4.09;90.63;98819.19;5034551;28;20464;-83
2022/10/09 05:11:17;;;;;;;11.40;8.20;;;4.10;99.90;;;3.82;90.63;98778.16;5016615;28;20467;-83
2022/10/09 05:13:47;;;;;;;12.03;8.27;;;4.10;99.90;;;4.04;90.59;98821.50;5033285;28;20477;-83
2022/10/09 05:16:19;;;;;;;11.20;8.67;;;4.10;99.90;;;4.00;90.92;98814.75;5020913;28;20459;-81
2022/10/09 05:18:51;;;;;;;12.23;7.93;;;4.10;99.90;;;3.98;90.73;98814.91;5018754;28;20458;-79
2022/10/09 05:21:20;;;;;;;9.70;8.10;;;4.10;99.90;;;3.95;90.58;98821.41;5009326;28;20463;-85
2022/10/09 05:23:49;;;;;;;9.10;7.70;;;4.10;99.90;;;3.93;90.98;98815.38;4993750;28;20459;-85
2022/10/09 05:26:18;;;;;;;11.90;7.87;;;4.00;99.90;;;3.79;91.87;98802.53;4994477;28;20513;-85
2022/10/09 05:28:48;;;;;;;10.33;8.33;;;4.00;99.90;;;4.01;91.28;98829.78;5022697;28;20489;-85
2022/10/09 05:31:22;;;;;;;12.10;8.23;;;4.10;99.90;;;3.85;91.40;98804.59;5028976;28;20467;-85
2022/10/09 05:33:51;;;;;;;11.70;8.40;;;4.10;99.90;;;3.97;90.67;98830.09;5025230;28;20967;-86
2022/10/09 05:36:19;;;;;;;8.97;7.50;;;4.00;99.90;;;3.87;91.03;98828.50;5014528;28;20462;-85
2022/10/09 05:38:48;;;;;;;11.70;8.50;;;3.90;99.90;;;3.33;91.32;98744.63;4981874;28;20967;-85
2022/10/09 05:41:28;;;;;;;9.87;8.87;;;3.90;99.90;;;3.87;92.14;98832.03;5016756;28;20447;-87
2022/10/09 05:44:01;;;;;;;11.87;8.80;;;3.90;99.90;;;3.93;91.79;98841.25;5051831;28;20464;-87
2022/10/09 05:46:31;;;;;;;10.43;7.60;;;3.90;99.90;;;3.23;91.90;98736.69;5017411;28;20537;-87
2022/10/09 05:49:04;;;;;;;12.90;9.47;;;3.90;99.90;;;3.61;91.11;98778.47;5016894;28;20455;-86
2022/10/09 05:51:36;;;;;;;14.37;8.63;;;4.00;99.90;;;3.79;91.77;98819.44;5017541;28;20483;-86
2022/10/09 05:54:05;;;;;;;11.93;8.47;;;4.00;99.90;;;3.59;91.60;98781.31;4995697;28;20487;-80
2022/10/09 05:56:35;;;;;;;10.80;8.27;;;4.00;99.90;;;4.03;91.20;98846.56;5009125;28;20466;-80
2022/10/09 05:59:04;;;;;;;11.40;8.80;;;4.00;99.90;;;4.03;91.45;98835.84;5010640;28;20446;-79
2022/10/09 06:01:36;;;;;;;8.90;7.80;;;4.00;99.90;;;3.60;91.87;98760.75;5006506;28;20792;-81
2022/10/09 06:04:05;;;;;;;11.20;9.20;;;4.00;99.90;;;4.14;91.67;98842.81;5024625;28;20467;-81
2022/10/09 06:06:36;;;;;;;11.23;9.00;;;4.10;99.90;;;4.17;91.57;98842.50;5029937;28;20454;-82
2022/10/09 06:09:05;;;;;;;10.87;8.60;;;4.10;99.90;;;4.16;90.71;98838.13;5029296;28;20544;-82
2022/10/09 06:11:35;;;;;;;12.03;9.90;;;4.20;99.90;;;3.77;90.98;98759.09;5023806;28;20468;-82
2022/10/09 06:14:06;;;;;;;9.50;8.50;;;4.30;99.90;;;4.33;90.97;98842.63;5072970;28;20456;-82
2022/10/09 06:16:40;;;;;;;10.30;8.67;;;4.30;99.90;;;4.36;91.05;98831.59;5032192;28;20565;-81
2022/10/09 06:19:12;;;;;;;13.60;8.97;;;4.30;99.90;;;4.28;90.97;98834.22;5035993;28;20520;-79
2022/10/09 06:21:40;;;;;;;13.43;8.57;;;4.30;99.90;;;4.48;91.42;98842.91;5036878;28;20462;-81
2022/10/09 06:24:11;;;;;;;11.67;8.83;;;4.40;99.90;;;4.36;90.97;98841.47;5022723;28;20516;-81
2022/10/09 06:26:42;;;;;;;10.83;8.73;;;4.50;99.90;;;4.49;90.92;98835.72;5021967;28;20481;-81
2022/10/09 06:29:10;;;;;;;13.20;10.23;;;4.50;99.90;;;4.67;90.44;98827.66;5017814;28;20492;-81
2022/10/09 06:31:40;;;;;;;11.47;9.53;;;4.70;99.90;;;4.69;90.32;98836.34;5049547;28;20468;-76
2022/10/09 06:34:07;;;;;;;9.80;8.80;;;4.70;99.90;;;4.64;91.40;98819.94;5023184;28;20472;-81
2022/10/09 06:36:36;;;;;;;14.17;10.10;;;4.70;99.90;;;4.80;92.02;98829.88;5026442;28;20796;-77
2022/10/09 06:39:06;;;;;;;15.53;8.80;;;4.80;99.90;;;4.94;90.72;98833.84;5018835;28;21042;-82
2022/10/09 06:41:34;;;;;;;10.23;8.60;;;4.90;99.90;;;4.95;92.13;98820.28;5004620;28;20545;-84
2022/10/09 06:44:04;;;;;;;10.53;9.03;;;5.00;99.90;;;5.16;90.80;98843.16;5023338;28;20470;-83
2022/10/09 06:46:34;;;;;;;9.10;8.07;;;5.10;99.90;;;5.28;91.51;98838.34;5015337;28;20520;-83
2022/10/09 06:49:04;;;;;;;10.70;9.17;;;5.20;99.90;;;5.35;90.56;98843.91;5017628;28;20972;-80
2022/10/09 06:51:32;;;;;;;12.97;9.97;;;5.30;99.90;;;5.63;91.60;98839.13;5031177;28;20466;-83
2022/10/09 06:54:03;;;;;;;11.87;9.50;;;5.50;99.90;;;5.84;91.67;98820.91;5009351;28;20963;-81
2022/10/09 06:56:32;;;;;;;11.43;9.00;;;5.80;99.90;;;6.18;90.82;98844.97;5016246;28;20462;-82
2022/10/09 06:59:01;;;;;;;9.83;8.83;;;6.10;99.90;;;6.50;90.48;98856.69;5021114;28;20604;-81
2022/10/09 07:01:30;;;;;;;11.40;8.70;;;6.30;99.90;;;6.50;90.45;98851.34;4998470;28;21073;-84
2022/10/09 07:04:22;;;;;;;10.10;8.10;;;6.40;99.90;;;6.55;90.39;98842.78;5001354;28;20516;-81
2022/10/09 07:06:50;;;;;;;10.10;9.00;;;6.50;99.90;;;6.63;89.71;98841.94;5033429;28;20486;-84
2022/10/09 07:09:18;;;;;;;9.40;7.53;;;6.50;99.90;;;6.58;90.00;98837.06;5015333;28;20472;-81
2022/10/09 07:11:48;;;;;;;10.23;8.07;;;6.50;99.90;;;6.77;89.71;98851.97;5027143;28;20630;-84
2022/10/09 07:14:17;;;;;;;10.10;8.80;;;6.60;99.90;;;6.77;89.15;98846.59;5020662;28;20479;-82
2022/10/09 07:16:48;;;;;;;8.77;7.87;;;6.70;99.90;;;6.92;88.85;98837.84;5021271;28;20455;-83
2022/10/09 07:19:25;;;;;;;9.03;8.13;;;6.80;99.90;;;7.10;89.65;98851.06;5017749;28;20500;-84
2022/10/09 07:21:54;;;;;;;9.13;8.13;;;6.90;99.90;;;7.37;88.97;98841.72;5019028;28;20459;-81
2022/10/09 07:24:24;;;;;;;10.23;9.23;;;7.20;99.90;;;7.54;88.87;98843.50;5023641;28;20512;-85
2022/10/09 07:26:54;;;;;;;13.73;8.90;;;7.30;99.90;;;7.63;88.92;98839.75;5007334;28;20513;-83
2022/10/09 07:29:21;;;;;;;9.30;8.40;;;7.40;99.90;;;7.64;86.89;98839.56;5021750;28;20549;-83
2022/10/09 07:31:48;;;;;;;9.37;8.47;;;7.50;99.90;;;7.70;87.93;98829.13;5022792;28;20983;-78
2022/10/09 07:34:16;;;;;;;13.17;9.10;;;7.60;99.90;;;7.93;88.28;98846.13;5021707;28;20476;-82
2022/10/09 07:36:44;;;;;;;9.97;8.00;;;7.70;99.90;;;8.00;87.67;98772.78;5023732;28;20528;-82
2022/10/09 07:39:11;;;;;;;12.07;7.07;;;8.10;99.90;;;7.94;86.30;98847.81;5023282;28;20461;-86
2022/10/09 07:41:39;;;;;;;7.17;6.47;;;8.10;98.70;;;8.00;86.07;98840.06;5017406;28;21033;-79
2022/10/09 07:44:06;;;;;;;8.60;6.87;;;8.10;99.50;;;8.07;86.20;98835.63;5033770;28;20474;-84
2022/10/09 07:46:33;;;;;;;6.33;5.83;;;8.10;99.90;;;8.07;86.89;98846.38;5019660;28;20468;-83
2022/10/09 07:49:01;;;;;;;6.77;6.07;;;8.20;99.40;;;8.03;86.70;98823.53;5016805;28;20495;-86
2022/10/09 07:51:30;;;;;;;7.00;6.17;;;8.20;98.80;;;8.22;85.79;98812.28;5006524;28;20510;-89
2022/10/09 07:54:00;;;;;;;10.20;6.40;;;8.40;98.90;;;8.49;85.03;98825.34;4999227;28;20451;-85
2022/10/09 07:56:31;;;;;;;7.30;5.30;;;8.50;98.10;;;8.46;85.30;98809.56;4985678;28;21008;-82
2022/10/09 07:59:00;;;;;;;6.70;6.00;;;8.60;97.10;;;8.70;84.53;98819.28;5022672;28;20467;-85
2022/10/09 08:01:28;;;;;;;7.77;5.63;;;8.80;96.40;;;8.92;83.28;98811.34;5008467;28;20935;-84
2022/10/09 08:03:57;;;;;;;7.90;6.20;;;8.90;95.80;;;9.15;84.03;98813.94;5026866;28;20470;-83
2022/10/09 08:06:24;;;;;;;8.87;5.23;;;9.10;96.60;;;9.03;82.53;98792.00;5009688;28;20828;-84
2022/10/09 08:08:54;;;;;;;6.63;4.90;;;9.30;94.20;;;9.31;81.70;98812.06;5023094;28;20461;-83
2022/10/09 08:11:24;;;;;;;6.17;4.83;;;9.40;93.50;;;9.29;81.45;98796.06;5028942;28;20460;-78
2022/10/09 08:13:53;;;;;;;4.77;3.87;;;9.50;93.20;;;9.56;80.10;98800.97;5010031;28;20566;-85
2022/10/09 08:16:22;;;;;;;8.13;4.47;;;9.60;92.20;;;9.71;80.11;98809.00;5029946;28;20869;-82
2022/10/09 08:18:49;;;;;;;4.40;4.00;;;9.70;92.30;;;9.93;79.42;98801.78;5026134;28;20426;-87
2022/10/09 08:21:18;;;;;;;5.57;3.80;;;9.90;91.90;;;9.97;78.67;98788.72;5017145;28;21024;-87
2022/10/09 08:23:46;;;;;;;5.50;4.30;;;10.00;90.80;;;10.20;78.40;98791.22;4986362;28;20550;-85
2022/10/09 08:26:15;;;;;;;7.67;4.27;;;10.10;91.00;;;10.12;77.57;98789.50;5024275;28;20464;-84
2022/10/09 08:28:44;;;;;;;4.20;3.27;;;10.20;89.00;;;10.32;77.26;98788.84;5019426;28;20463;-81
2022/10/09 08:31:12;;;;;;;4.03;3.63;;;10.30;89.10;;;10.38;76.58;98790.75;5028043;28;20519;-83
2022/10/09 08:33:40;;;;;;;3.63;3.20;;;10.40;88.10;;;10.55;76.68;98782.41;5019074;28;20459;-78
2022/10/09 08:36:10;;;;;;;6.43;4.10;;;10.50;88.50;;;10.62;75.25;98796.78;5016018;28;20477;-80
2022/10/09 08:38:38;;;;;;;8.30;3.60;;;10.60;87.60;;;10.62;74.33;98767.91;5020894;28;20806;-82
2022/10/09 08:41:11;;;;;;;4.03;3.43;;;10.70;86.20;;;10.85;74.03;98779.50;5024650;28;20808;-80
2022/10/09 08:43:44;;;;;;;4.07;3.30;;;10.80;85.60;;;10.86;73.96;98783.84;5004031;28;20451;-79
2022/10/09 08:46:19;;;;;;;13.20;5.00;;;10.80;85.50;;;10.86;72.71;98767.63;5001295;28;20459;-77
2022/10/09 08:48:47;;;;;;;4.37;3.30;;;11.00;84.90;;;11.22;72.99;98777.38;5025812;28;20469;-81
2022/10/09 08:51:23;;;;;;;4.87;3.67;;;11.10;85.00;;;11.14;72.15;98785.66;5017131;28;20461;-79
2022/10/09 08:53:57;;;;;;;5.30;3.70;;;11.20;84.20;;;11.18;71.85;98776.94;5021031;28;20473;-78
2022/10/09 08:56:27;;;;;;;5.97;3.60;;;11.20;83.80;;;11.23;71.93;98752.00;5021321;28;20461;-81
2022/10/09 08:58:56;;;;;;;7.00;3.87;;;11.30;84.00;;;11.65;71.26;98778.16;5016172;28;20457;-85
2022/10/09 09:01:35;;;;;;;3.90;3.37;;;11.50;84.30;;;11.48;70.35;98782.06;5013214;28;21029;-79
2022/10/09 09:04:40;;;;;;;5.03;3.43;;;11.60;82.90;;;11.61;68.81;98775.03;5016076;28;20471;-81
2022/10/09 09:07:21;;;;;;;4.97;3.13;;;11.60;81.90;;;11.76;68.62;98764.06;5034521;28;20460;-80
2022/10/09 09:09:55;;;;;;;4.40;3.40;;;11.70;81.80;;;11.94;68.63;98770.75;5055600;28;20504;-76
2022/10/09 09:12:33;;;;;;;3.10;2.90;;;11.80;81.90;;;12.06;67.59;98771.84;5015803;28;20453;-81
2022/10/09 09:15:18;;;;;;;3.57;3.23;;;12.00;81.50;;;12.19;66.92;98758.28;5024934;28;20580;-81
2022/10/09 09:17:55;;;;;;;4.57;3.40;;;12.10;81.10;;;12.22;66.61;98761.63;5008861;28;20547;-79
2022/10/09 09:20:26;;;;;;;3.40;3.03;;;12.20;80.90;;;12.33;67.18;98761.84;5025750;28;20593;-81
2022/10/09 09:22:55;;;;;;;3.07;2.77;;;12.20;81.10;;;12.30;67.20;98770.38;5005635;28;21359;-83
2022/10/09 09:25:27;;;;;;;4.00;3.17;;;12.30;80.90;;;12.36;66.49;98766.03;5028595;28;20551;-84
2022/10/09 09:27:59;;;;;;;3.30;2.77;;;12.30;80.40;;;12.41;66.50;98758.09;5026227;28;20468;-81
2022/10/09 09:30:32;;;;;;;5.10;3.20;;;12.40;80.20;;;12.36;66.92;98757.03;5010169;28;20468;-81
2022/10/09 09:33:12;;;;;;;4.57;3.20;;;12.40;80.30;;;12.18;66.32;98745.78;5016961;28;20446;-81
2022/10/09 09:35:46;;;;;;;3.83;3.40;;;12.40;80.00;;;12.65;66.33;98750.31;5026608;28;20484;-80
2022/10/09 09:38:14;;;;;;;4.07;3.00;;;12.50;80.50;;;12.75;64.94;98737.19;4986799;28;20578;-87
2022/10/09 09:40:43;;;;;;;4.07;2.80;;;12.70;79.60;;;12.98;64.17;98751.31;5023689;28;20469;-82
2022/10/09 09:43:16;;;;;;;6.23;2.67;;;12.80;79.50;;;13.14;64.13;98744.59;5038315;28;20544;-84
2022/10/09 09:45:46;;;;;;;3.93;2.80;;;12.90;79.40;;;13.22;63.80;98741.63;5035386;28;20469;-87
2022/10/09 09:48:18;;;;;;;4.37;2.90;;;13.00;79.00;;;13.20;63.29;98738.28;5042895;28;20752;-83
2022/10/09 09:50:45;;;;;;;3.27;3.00;;;13.10;78.70;;;13.40;62.59;98731.94;5020267;28;20454;-81
2022/10/09 09:53:23;;;;;;;3.83;2.70;;;13.20;78.50;;;13.43;62.73;98736.97;5042253;28;20453;-76
2022/10/09 09:55:53;;;;;;;2.90;2.60;;;13.30;78.10;;;13.16;60.96;98731.63;5037950;28;20470;-78
2022/10/09 09:58:22;;;;;;;3.67;2.40;;;13.20;75.60;;;13.39;58.21;98730.28;5034409;28;20452;-78
2022/10/09 10:01:00;;;;;;;2.57;1.97;;;13.30;73.80;;;13.60;56.64;98737.28;5033004;28;21071;-80
2022/10/09 10:03:28;;;;;;;4.73;2.40;;;13.50;71.90;;;13.98;54.86;98727.44;5021483;28;20466;-81
2022/10/09 10:05:55;;;;;;;2.70;2.10;;;13.70;70.70;;;14.09;53.50;98731.31;5019874;28;20467;-76
2022/10/09 10:08:26;;;;;;;1.67;1.50;;;13.90;69.10;;;13.93;52.42;98719.13;5027384;28;20461;-81
2022/10/09 10:10:56;;;;;;;1.90;1.40;;;13.90;66.80;;;13.90;52.36;98725.00;5014510;28;21294;-87
2022/10/09 10:13:32;;;;;;;2.40;2.10;;;13.80;66.20;;;13.95;51.72;98707.00;5030898;28;20457;-82
2022/10/09 10:16:02;;;;;;;3.13;2.07;;;13.90;66.10;;;13.83;52.20;98714.19;5032160;28;20472;-87
2022/10/09 10:18:38;;;;;;;3.50;2.10;;;13.80;65.50;;;13.95;52.75;98695.28;5030855;28;20461;-89
2022/10/09 10:21:13;;;;;;;2.23;1.57;;;13.90;66.20;;;14.01;50.29;98705.25;5025909;28;20463;-86
2022/10/09 10:23:44;;;;;;;2.00;1.80;;;14.10;64.10;;;13.93;50.37;98716.41;5026760;28;20464;-84
2022/10/09 10:26:23;;;;;;;2.37;1.97;;;14.00;62.90;;;14.13;50.05;98705.41;5023101;28;20868;-87
2022/10/09 10:28:57;;;;;;;3.33;1.90;;;14.00;63.10;;;14.33;49.76;98699.78;5028668;28;20454;-78
2022/10/09 10:31:44;;;;;;;2.17;1.70;;;14.20;62.80;;;14.44;49.56;98690.88;5034461;28;20446;-78
2022/10/09 10:34:19;;;;;;;2.47;1.67;;;14.30;62.80;;;14.29;50.47;98695.84;5035747;28;20541;-88
2022/10/09 10:36:48;;;;;;;4.13;2.10;;;14.30;62.90;;;14.22;50.46;98697.78;5025087;28;20481;-86
2022/10/09 10:39:27;;;;;;;2.50;1.90;;;14.20;62.50;;;14.18;49.97;98629.47;5033868;28;20801;-78
2022/10/09 10:42:00;;;;;;;2.10;1.63;;;14.30;62.70;;;14.25;49.73;98678.31;5015806;28;20468;-85